Time,TemperatureF,DewpointF,PressureIn,WindDirection,WindDirectionDegrees,WindSpeedMPH,WindSpeedGustMPH,Humidity,HourlyPrecipIn,Conditions,Clouds,dailyrainin,SoftwareType,DateUTC
2013-06-24 08:55:00,68.0,68.0,29.86,South,183,0.0,-999.0,99,-99.99,,,-99.99,,2013-06-24 12:55:00,
2013-06-24 09:06:00,68.0,68.0,29.85,South,183,0.0,-999.0,99,-99.99,,,-99.99,,2013-06-24 13:06:00,
2013-06-24 09:14:00,68.0,68.0,29.85,South,183,0.0,-999.0,99,-99.99,,,-99.99,,2013-06-24 13:14:00,
2013-06-24 09:36:00,70.0,70.0,29.87,South,183,0.0,-999.0,99,-99.99,,,-99.99,,2013-06-24 13:36:00,
2013-06-24 09:45:00,71.0,70.0,29.85,South,183,0.0,-999.0,98,-99.99,,,-99.99,,2013-06-24 13:45:00,
2013-06-24 09:56:00,73.0,71.0,29.86,South,183,0.0,-999.0,95,-99.99,,,-99.99,,2013-06-24 13:56:00,
2013-06-24 10:16:00,74.0,71.0,29.84,SE,126,0.0,-999.0,91,-99.99,,,-99.99,,2013-06-24 14:16:00,
2013-06-24 10:38:00,76.0,71.0,29.84,SE,128,0.0,-999.0,84,-99.99,,,-99.99,,2013-06-24 14:38:00,
2013-06-24 10:45:00,78.0,72.0,29.84,NNE,20,0.0,-999.0,82,-99.99,,,-99.99,,2013-06-24 14:45:00,
2013-06-24 10:59:00,79.0,72.0,29.85,NNE,18,0.0,-999.0,80,-99.99,,,-99.99,,2013-06-24 14:59:00,
2013-06-24 11:06:00,79.0,72.0,29.83,NE,47,0.0,-999.0,79,-99.99,,,-99.99,,2013-06-24 15:06:00,
2013-06-24 11:27:00,80.0,70.0,29.86,North,354,1.0,-999.0,72,-99.99,,,-99.99,,2013-06-24 15:27:00,
2013-06-24 11:36:00,79.0,70.0,29.83,ESE,119,0.0,-999.0,75,-99.99,,,-99.99,,2013-06-24 15:36:00,
2013-06-24 12:04:00,80.0,71.0,29.85,ENE,58,1.0,-999.0,73,-99.99,,,-99.99,,2013-06-24 16:04:00,
2013-06-24 12:15:00,81.0,70.0,29.82,SSW,192,1.0,-999.0,70,-99.99,,,-99.99,,2013-06-24 16:15:00,
2013-06-24 12:24:00,82.0,71.0,29.82,West,274,1.0,-999.0,70,-99.99,,,-99.99,,2013-06-24 16:24:00,
2013-06-24 12:36:00,82.0,71.0,29.82,West,274,1.0,-999.0,70,-99.99,,,-99.99,,2013-06-24 16:36:00,
2013-06-24 12:44:00,82.0,71.0,29.82,East,99,0.0,-999.0,70,-99.99,,,-99.99,,2013-06-24 16:44:00,
2013-06-24 13:06:00,82.0,71.0,29.82,WSW,243,0.0,-999.0,70,-99.99,,,-99.99,,2013-06-24 17:06:00,
2013-06-24 13:47:00,84.0,71.0,29.81,NNE,18,0.0,-999.0,65,-99.99,,,-99.99,,2013-06-24 17:47:00,
2013-06-24 13:55:00,84.0,70.0,29.83,SSW,199,0.0,-999.0,64,-99.99,,,-99.99,,2013-06-24 17:55:00,
2013-06-24 14:15:00,84.0,70.0,29.80,NE,49,1.0,-999.0,64,-99.99,,,-99.99,,2013-06-24 18:15:00,
2013-06-24 14:26:00,86.0,72.0,29.82,ENE,64,0.0,-999.0,63,-99.99,,,-99.99,,2013-06-24 18:26:00,
2013-06-24 14:47:00,85.0,70.0,29.79,West,264,1.0,-999.0,60,-99.99,,,-99.99,,2013-06-24 18:47:00,
2013-06-24 14:56:00,86.0,73.0,29.78,SSW,207,0.0,-999.0,65,-99.99,,,-99.99,,2013-06-24 18:56:00,
2013-06-24 15:07:00,86.0,73.0,29.78,SSW,207,0.0,-999.0,65,-99.99,,,-99.99,,2013-06-24 19:07:00,
2013-06-24 15:37:00,87.0,72.0,29.78,NE,47,1.0,-999.0,61,-99.99,,,-99.99,,2013-06-24 19:37:00,
2013-06-24 15:46:00,86.0,70.0,29.78,North,359,1.0,-999.0,60,-99.99,,,-99.99,,2013-06-24 19:46:00,
2013-06-24 15:54:00,85.0,70.0,29.80,SSE,150,1.0,-999.0,61,-99.99,,,-99.99,,2013-06-24 19:54:00,
2013-06-24 16:06:00,84.0,71.0,29.77,SSE,153,0.0,-999.0,65,-99.99,,,-99.99,,2013-06-24 20:06:00,
2013-06-24 16:24:00,81.0,73.0,29.80,South,172,0.0,-999.0,77,-99.99,,,-99.99,,2013-06-24 20:24:00,
2013-06-24 17:14:00,79.0,70.0,29.77,SE,142,1.0,-999.0,75,-99.99,,,-99.99,,2013-06-24 21:14:00,